createdAt,value
2018-07-04T00:00:11.931Z,2.40
2018-07-04T00:00:57.179Z,2.20
2018-07-04T00:01:42.886Z,2.15
2018-07-04T00:02:28.411Z,2.10
2018-07-04T00:03:14.685Z,1.90
2018-07-04T00:04:00.327Z,1.98
2018-07-04T00:04:45.771Z,2.03
2018-07-04T00:05:31.253Z,2.45
2018-07-04T00:06:16.841Z,2.40
2018-07-04T00:07:02.553Z,2.23
2018-07-04T00:07:48.253Z,2.05
2018-07-04T00:08:33.738Z,2.00
2018-07-04T00:09:19.319Z,2.05
2018-07-04T00:10:04.479Z,2.20
2018-07-04T00:10:49.993Z,2.03
2018-07-04T00:11:35.731Z,2.60
2018-07-04T00:12:21.423Z,2.10
2018-07-04T00:13:07.173Z,2.65
2018-07-04T00:13:52.820Z,2.72
2018-07-04T00:14:38.107Z,2.10
2018-07-04T00:15:23.739Z,2.40
2018-07-04T00:16:09.219Z,2.87
2018-07-04T00:16:54.914Z,2.37
2018-07-04T00:17:41.039Z,2.30
2018-07-04T00:18:26.955Z,3.17
2018-07-04T00:19:12.645Z,2.15
2018-07-04T00:19:58.053Z,2.47
2018-07-04T00:20:43.529Z,2.50
2018-07-04T00:21:29.029Z,2.45
2018-07-04T00:22:14.615Z,2.30
2018-07-04T00:23:00.460Z,2.50
2018-07-04T00:23:46.200Z,2.45
2018-07-04T00:24:32.019Z,2.10
2018-07-04T00:25:17.717Z,2.20
2018-07-04T00:26:03.411Z,2.42
2018-07-04T00:26:49.041Z,2.50
2018-07-04T00:27:34.623Z,2.50
2018-07-04T00:28:20.342Z,2.42
2018-07-04T00:29:06.093Z,2.12
2018-07-04T00:29:51.623Z,2.83
2018-07-04T00:30:37.251Z,2.75
2018-07-04T00:31:22.515Z,2.83
2018-07-04T00:32:08.034Z,2.45
2018-07-04T00:32:53.751Z,2.42
2018-07-04T00:33:39.481Z,2.80
2018-07-04T00:34:18.911Z,3.05
2018-07-04T00:35:04.301Z,2.80
2018-07-04T00:35:49.857Z,2.50
2018-07-04T00:36:35.469Z,2.98
2018-07-04T00:37:21.060Z,2.80
2018-07-04T00:38:06.661Z,2.65
2018-07-04T00:38:52.274Z,2.85
2018-07-04T00:39:37.910Z,3.12
2018-07-04T00:40:23.618Z,3.20
2018-07-04T00:41:09.222Z,3.42
2018-07-04T00:41:54.817Z,2.80
2018-07-04T00:42:40.449Z,2.90
2018-07-04T00:43:25.991Z,2.92
2018-07-04T00:44:11.605Z,3.25
2018-07-04T00:44:57.153Z,2.85
2018-07-04T00:45:42.729Z,3.10
2018-07-04T00:46:28.345Z,3.35
2018-07-04T00:47:13.825Z,3.08
2018-07-04T00:47:59.542Z,3.22
2018-07-04T00:48:45.277Z,3.62
2018-07-04T00:49:30.803Z,2.75
2018-07-04T00:50:16.477Z,3.10
2018-07-04T00:51:02.096Z,3.40
2018-07-04T00:51:47.740Z,3.98
2018-07-04T00:52:33.231Z,3.42
2018-07-04T00:53:18.797Z,4.33
2018-07-04T00:54:04.468Z,3.83
2018-07-04T00:54:50.091Z,3.10
2018-07-04T00:55:35.807Z,4.20
2018-07-04T00:56:21.744Z,3.25
2018-07-04T00:57:07.299Z,3.92
2018-07-04T00:57:52.969Z,3.40
2018-07-04T00:58:38.464Z,3.42
2018-07-04T00:59:24.177Z,3.60
2018-07-04T01:00:09.958Z,3.85
2018-07-04T01:00:55.547Z,3.10
2018-07-04T01:01:41.246Z,3.42
2018-07-04T01:02:20.529Z,3.13
2018-07-04T01:03:05.972Z,3.90
2018-07-04T01:03:51.560Z,3.77
2018-07-04T01:04:37.199Z,4.30
2018-07-04T01:05:22.816Z,3.52
2018-07-04T01:06:08.514Z,3.37
2018-07-04T01:06:54.073Z,2.92
2018-07-04T01:07:39.597Z,4.35
2018-07-04T01:08:25.141Z,3.40
2018-07-04T01:09:10.619Z,4.08
2018-07-04T01:09:56.152Z,3.35
2018-07-04T01:10:41.693Z,3.60
2018-07-04T01:11:27.253Z,4.10
2018-07-04T01:12:12.707Z,3.35
2018-07-04T01:12:58.221Z,3.92
2018-07-04T01:13:43.844Z,4.20
2018-07-04T01:14:23.285Z,3.67
2018-07-04T01:15:08.551Z,4.37
2018-07-04T01:15:54.231Z,3.70
2018-07-04T01:16:39.787Z,3.65
2018-07-04T01:17:25.275Z,3.58
2018-07-04T01:18:10.836Z,3.60
2018-07-04T01:18:56.368Z,3.45
2018-07-04T01:19:42.026Z,3.87
2018-07-04T01:20:31.912Z,4.00
2018-07-04T01:21:17.453Z,4.47
2018-07-04T01:22:03.029Z,4.65
2018-07-04T01:22:48.699Z,4.45
2018-07-04T01:23:34.249Z,3.85
2018-07-04T01:24:19.911Z,4.03
2018-07-04T01:25:05.638Z,5.10
2018-07-04T01:25:51.259Z,4.03
2018-07-04T01:26:36.876Z,4.15
2018-07-04T01:27:22.675Z,4.17
2018-07-04T01:28:08.273Z,4.35
2018-07-04T01:28:53.893Z,3.85
2018-07-04T01:29:39.531Z,4.58
2018-07-04T01:30:25.025Z,3.98
2018-07-04T01:31:04.524Z,4.37
2018-07-04T01:31:50.070Z,4.45
2018-07-04T01:32:35.628Z,4.58
2018-07-04T01:33:21.351Z,4.15
2018-07-04T01:34:07.346Z,4.37
2018-07-04T01:34:53.086Z,4.05
2018-07-04T01:35:38.629Z,4.47
2018-07-04T01:36:23.992Z,4.70
2018-07-04T01:37:09.713Z,4.22
2018-07-04T01:37:55.423Z,4.60
2018-07-04T01:38:41.005Z,4.92
2018-07-04T01:39:26.840Z,4.67
2018-07-04T01:40:12.571Z,5.85
2018-07-04T01:40:58.233Z,4.30
2018-07-04T01:41:43.865Z,4.78
2018-07-04T01:42:29.964Z,5.17
2018-07-04T01:43:15.567Z,4.60
2018-07-04T01:44:01.183Z,5.00
2018-07-04T01:44:46.837Z,4.20
2018-07-04T01:45:32.421Z,4.90
2018-07-04T01:46:18.093Z,5.33
2018-07-04T01:47:03.713Z,4.37
2018-07-04T01:47:49.335Z,4.87
2018-07-04T01:48:34.984Z,5.00
2018-07-04T01:49:20.639Z,5.30
2018-07-04T01:50:06.109Z,5.37
2018-07-04T01:50:45.813Z,5.25
2018-07-04T01:51:31.371Z,5.15
2018-07-04T01:52:16.911Z,5.80
2018-07-04T01:53:02.527Z,5.33
2018-07-04T01:53:48.091Z,5.12
2018-07-04T01:54:33.751Z,5.33
2018-07-04T01:55:19.316Z,5.25
2018-07-04T01:56:04.758Z,5.28
2018-07-04T01:56:50.248Z,5.28
2018-07-04T01:57:35.549Z,5.20
2018-07-04T01:58:22.205Z,5.33
2018-07-04T01:59:07.765Z,6.05
2018-07-04T01:59:53.413Z,5.30
2018-07-04T02:00:39.091Z,5.28
2018-07-04T02:01:24.785Z,5.12
2018-07-04T02:02:10.349Z,5.40
2018-07-04T02:02:55.871Z,4.85
2018-07-04T02:03:41.377Z,5.55
2018-07-04T02:04:26.967Z,5.83
2018-07-04T02:05:12.489Z,5.83
2018-07-04T02:05:58.205Z,5.90
2018-07-04T02:06:43.757Z,5.67
2018-07-04T02:07:29.333Z,5.40
2018-07-04T02:08:14.911Z,5.55
2018-07-04T02:09:00.672Z,5.40
2018-07-04T02:09:46.379Z,6.05
2018-07-04T02:10:31.987Z,5.78
2018-07-04T02:11:17.533Z,6.28
2018-07-04T02:12:03.119Z,5.92
2018-07-04T02:12:48.749Z,6.08
2018-07-04T02:13:34.285Z,6.17
2018-07-04T02:14:19.809Z,6.08
2018-07-04T02:15:05.586Z,6.25
2018-07-04T02:15:51.337Z,6.83
2018-07-04T02:16:37.001Z,5.22
2018-07-04T02:17:22.511Z,6.08
2018-07-04T02:18:08.155Z,5.40
2018-07-04T02:18:54.929Z,6.00
2018-07-04T02:19:40.449Z,5.50
2018-07-04T02:20:26.037Z,6.53
2018-07-04T02:21:11.511Z,6.72
2018-07-04T02:21:57.155Z,6.75
2018-07-04T02:22:42.688Z,5.80
2018-07-04T02:23:28.287Z,6.00
2018-07-04T02:24:13.869Z,5.95
2018-07-04T02:24:59.393Z,5.80
2018-07-04T02:25:45.145Z,6.40
2018-07-04T02:26:30.689Z,6.85
2018-07-04T02:27:16.431Z,5.90
2018-07-04T02:28:02.275Z,6.10
2018-07-04T02:28:47.749Z,6.20
2018-07-04T02:29:33.125Z,6.17
2018-07-04T02:30:18.916Z,6.80
2018-07-04T02:31:04.321Z,5.93
2018-07-04T02:31:50.103Z,5.97
2018-07-04T02:32:35.645Z,7.03
2018-07-04T02:33:15.101Z,7.00
2018-07-04T02:34:00.474Z,6.80
2018-07-04T02:34:45.891Z,7.00
2018-07-04T02:35:31.493Z,7.25
2018-07-04T02:36:17.148Z,6.53
2018-07-04T02:37:02.701Z,6.65
2018-07-04T02:37:48.497Z,6.20
2018-07-04T02:38:34.451Z,6.95
2018-07-04T02:39:20.027Z,8.58
2018-07-04T02:40:05.679Z,8.10
2018-07-04T02:40:51.257Z,7.75
2018-07-04T02:41:36.977Z,7.80
2018-07-04T02:42:22.785Z,7.10
2018-07-04T02:43:08.355Z,7.53
2018-07-04T02:43:54.073Z,7.47
2018-07-04T02:44:39.691Z,7.87
2018-07-04T02:45:25.391Z,8.40
2018-07-04T02:46:11.059Z,8.00
2018-07-04T02:46:56.753Z,7.62
2018-07-04T02:47:42.207Z,8.18
2018-07-04T02:48:27.809Z,8.23
2018-07-04T02:49:13.433Z,8.60
2018-07-04T02:49:59.060Z,8.10
2018-07-04T02:50:44.583Z,7.72
2018-07-04T02:51:30.199Z,9.18
2018-07-04T02:52:15.887Z,8.68
2018-07-04T02:53:01.531Z,8.13
2018-07-04T02:53:47.133Z,8.80
2018-07-04T02:54:32.695Z,7.83
2018-07-04T02:55:18.224Z,7.80
2018-07-04T02:56:03.998Z,8.40
2018-07-04T02:56:49.513Z,8.40
2018-07-04T02:57:34.725Z,7.33
2018-07-04T02:58:20.423Z,8.33
2018-07-04T02:59:06.069Z,7.40
2018-07-04T02:59:51.477Z,8.20
2018-07-04T03:00:37.230Z,7.55
2018-07-04T03:01:22.965Z,7.22
2018-07-04T03:02:08.721Z,6.78
2018-07-04T03:02:54.169Z,6.92
2018-07-04T03:03:39.737Z,7.47
2018-07-04T03:04:25.550Z,7.53
2018-07-04T03:05:11.173Z,7.70
2018-07-04T03:05:56.960Z,7.20
2018-07-04T03:06:42.695Z,6.83
2018-07-04T03:07:28.353Z,7.00
2018-07-04T03:08:13.900Z,6.55
2018-07-04T03:08:59.397Z,7.15
2018-07-04T03:09:45.107Z,7.58
2018-07-04T03:10:30.593Z,7.40
2018-07-04T03:11:16.287Z,10.78
2018-07-04T03:45:41.934Z,6.33
2018-07-04T03:46:27.426Z,5.72
2018-07-04T03:47:12.699Z,5.20
2018-07-04T03:47:58.086Z,6.03
2018-07-04T03:48:43.290Z,5.63
2018-07-04T03:49:28.592Z,5.47
2018-07-04T03:50:14.106Z,5.97
2018-07-04T03:50:59.480Z,5.80
2018-07-04T03:51:44.943Z,5.97
2018-07-04T03:52:30.312Z,5.13
2018-07-04T03:53:15.573Z,5.67
2018-07-04T03:54:00.842Z,5.57
2018-07-04T03:54:46.024Z,5.20
2018-07-04T03:55:31.494Z,5.43
2018-07-04T03:56:16.874Z,5.63
2018-07-04T03:57:02.320Z,4.73
2018-07-04T03:57:41.467Z,5.13
2018-07-04T03:58:26.876Z,5.43
2018-07-04T03:59:12.138Z,4.73
2018-07-04T03:59:57.656Z,5.33
2018-07-04T04:00:43.179Z,5.30
2018-07-04T04:01:28.729Z,5.10
2018-07-04T04:02:14.053Z,4.90
2018-07-04T04:02:59.251Z,5.00
2018-07-04T04:03:44.582Z,4.70
2018-07-04T04:04:30.017Z,5.20
2018-07-04T04:05:15.345Z,4.77
2018-07-04T04:06:00.657Z,4.90
2018-07-04T04:06:45.996Z,4.53
2018-07-04T04:07:31.528Z,5.17
2018-07-04T04:08:16.936Z,4.17
2018-07-04T04:09:02.161Z,4.40
2018-07-04T04:09:47.568Z,4.30
2018-07-04T04:10:32.931Z,4.60
2018-07-04T04:11:18.162Z,5.30
2018-07-04T04:12:04.404Z,4.63
2018-07-04T04:12:49.872Z,4.60
2018-07-04T04:13:35.112Z,5.00
2018-07-04T04:14:20.578Z,5.47
2018-07-04T04:15:05.950Z,5.00
2018-07-04T04:15:51.197Z,5.20
2018-07-04T04:16:36.406Z,4.70
2018-07-04T04:17:21.712Z,5.30
2018-07-04T04:18:07.001Z,4.83
2018-07-04T04:18:52.482Z,5.20
2018-07-04T04:19:37.844Z,4.63
2018-07-04T04:20:23.266Z,4.67
2018-07-04T04:21:08.648Z,4.80
2018-07-04T04:21:54.234Z,4.60
2018-07-04T04:22:39.628Z,4.80
2018-07-04T04:23:24.844Z,5.07
2018-07-04T04:24:10.218Z,5.27
2018-07-04T04:24:55.976Z,4.37
2018-07-04T04:25:41.537Z,4.93
2018-07-04T04:26:27.130Z,4.10
2018-07-04T04:27:12.418Z,4.40
2018-07-04T04:27:57.965Z,5.83
2018-07-04T04:28:43.170Z,4.80
2018-07-04T04:29:28.504Z,6.17
2018-07-04T04:30:13.970Z,5.40
2018-07-04T04:30:59.361Z,4.73
2018-07-04T04:31:44.724Z,4.70
2018-07-04T04:32:30.139Z,5.03
2018-07-04T04:33:15.432Z,4.70
2018-07-04T04:34:00.655Z,4.27
2018-07-04T04:34:45.920Z,4.50
2018-07-04T04:35:31.514Z,4.80
2018-07-04T04:36:16.900Z,5.20
2018-07-04T04:37:02.419Z,5.27
2018-07-04T04:37:47.680Z,4.90
2018-07-04T04:38:32.940Z,5.60
2018-07-04T04:39:18.344Z,5.03
2018-07-04T04:40:03.736Z,4.60
2018-07-04T04:40:42.986Z,4.70
2018-07-04T04:41:28.196Z,4.10
2018-07-04T04:42:13.539Z,5.07
2018-07-04T04:42:58.917Z,5.00
2018-07-04T04:43:44.271Z,5.03
2018-07-04T04:44:29.499Z,4.87
2018-07-04T04:45:14.736Z,4.83
2018-07-04T04:46:00.146Z,5.47
2018-07-04T04:46:45.439Z,4.87
2018-07-04T04:47:30.667Z,4.03
2018-07-04T04:48:15.816Z,5.10
2018-07-04T04:49:01.087Z,4.53
2018-07-04T04:49:46.610Z,5.07
2018-07-04T04:50:31.894Z,4.07
2018-07-04T04:51:17.258Z,4.80
2018-07-04T04:52:02.631Z,4.43
2018-07-04T04:52:47.942Z,5.00
2018-07-04T04:53:33.247Z,4.70
2018-07-04T04:54:18.500Z,4.50
2018-07-04T04:55:03.715Z,4.67
2018-07-04T04:55:48.982Z,4.93
2018-07-04T04:56:34.292Z,5.20
2018-07-04T04:57:19.681Z,4.90
2018-07-04T04:58:05.098Z,4.20
2018-07-04T04:58:50.654Z,4.90
2018-07-04T04:59:36.030Z,4.57
2018-07-04T05:00:21.293Z,4.83
2018-07-04T05:01:06.859Z,4.47
2018-07-04T05:01:52.549Z,4.63
2018-07-04T05:02:31.892Z,4.40
2018-07-04T05:03:17.234Z,4.70
2018-07-04T05:04:02.554Z,4.40
2018-07-04T05:04:47.940Z,4.33
2018-07-04T05:05:33.276Z,4.30
2018-07-04T05:06:18.596Z,4.63
2018-07-04T05:07:04.053Z,4.07
2018-07-04T05:07:49.602Z,4.40
2018-07-04T05:08:35.114Z,4.20
2018-07-04T05:09:20.431Z,4.70
2018-07-04T05:10:05.953Z,4.20
2018-07-04T05:10:51.394Z,4.50
2018-07-04T05:11:36.808Z,4.50
2018-07-04T05:12:21.894Z,4.27
2018-07-04T05:13:07.095Z,4.70
2018-07-04T05:13:52.456Z,4.50
2018-07-04T05:14:37.700Z,4.03
2018-07-04T05:15:23.077Z,4.37
2018-07-04T05:16:08.346Z,4.97
2018-07-04T05:16:53.628Z,4.10
2018-07-04T05:17:38.955Z,4.73
2018-07-04T05:18:24.284Z,4.30
2018-07-04T05:19:09.601Z,3.60
2018-07-04T05:19:54.951Z,4.30
2018-07-04T05:20:40.243Z,4.13
2018-07-04T05:21:25.472Z,4.30
2018-07-04T05:22:10.865Z,4.13
2018-07-04T05:22:56.227Z,4.50
2018-07-04T05:23:41.547Z,3.70
2018-07-04T05:24:26.736Z,4.00
2018-07-04T05:25:11.951Z,3.93
2018-07-04T05:25:57.349Z,3.90
2018-07-04T05:26:42.531Z,3.53
2018-07-04T05:27:27.813Z,4.10
2018-07-04T05:28:13.233Z,3.93
2018-07-04T05:28:58.777Z,4.20
2018-07-04T05:29:44.083Z,3.70
2018-07-04T05:30:29.281Z,3.43
2018-07-04T05:31:14.787Z,3.37
2018-07-04T05:32:00.014Z,3.50
2018-07-04T05:32:45.359Z,3.20
2018-07-04T05:33:30.595Z,3.97
2018-07-04T05:34:15.927Z,4.03
2018-07-04T05:35:01.538Z,3.77
2018-07-04T05:35:46.923Z,3.20
2018-07-04T05:36:32.187Z,3.33
2018-07-04T05:37:17.409Z,3.47
2018-07-04T05:38:02.737Z,3.40
2018-07-04T05:38:47.972Z,3.63
2018-07-04T05:39:33.046Z,3.50
2018-07-04T05:40:18.436Z,4.03
2018-07-04T05:41:03.868Z,3.30
2018-07-04T05:41:43.271Z,3.13
2018-07-04T05:42:28.463Z,3.50
2018-07-04T05:43:13.617Z,3.67
2018-07-04T05:43:59.045Z,3.33
2018-07-04T05:44:44.559Z,3.03
2018-07-04T05:45:29.757Z,3.40
2018-07-04T05:46:15.233Z,3.50
2018-07-04T05:47:02.494Z,3.20
2018-07-04T05:47:47.979Z,2.57
2018-07-04T05:48:33.141Z,2.80
2018-07-04T05:49:19.507Z,3.20
2018-07-04T05:50:06.458Z,3.97
2018-07-04T05:50:51.745Z,3.30
2018-07-04T05:51:37.103Z,2.73
2018-07-04T05:52:33.065Z,2.60
2018-07-04T05:53:18.365Z,2.80
2018-07-04T05:54:03.775Z,3.60
2018-07-04T05:54:49.937Z,2.30
2018-07-04T05:55:35.257Z,2.60
2018-07-04T05:56:23.940Z,3.20
2018-07-04T05:57:10.611Z,3.33
2018-07-04T05:57:55.840Z,3.30
2018-07-04T05:58:41.313Z,3.50
2018-07-04T05:59:27.196Z,3.00
2018-07-04T06:00:12.531Z,3.00
2018-07-04T06:00:57.897Z,3.30
2018-07-04T06:01:42.987Z,3.10
2018-07-04T06:02:28.444Z,2.90
2018-07-04T06:03:13.758Z,3.40
2018-07-04T06:03:59.613Z,3.70
2018-07-04T06:04:45.031Z,2.70
2018-07-04T06:05:30.387Z,2.93
2018-07-04T06:06:15.665Z,2.90
2018-07-04T06:07:00.825Z,2.93
2018-07-04T06:07:46.069Z,3.00
2018-07-04T06:08:31.402Z,3.07
2018-07-04T06:09:16.678Z,2.70
2018-07-04T06:10:02.032Z,3.00
2018-07-04T06:10:51.405Z,3.20
2018-07-04T06:11:36.757Z,2.80
2018-07-04T06:12:22.299Z,3.13
2018-07-04T06:13:07.543Z,2.90
2018-07-04T06:13:53.001Z,2.90
2018-07-04T06:14:38.232Z,2.60
2018-07-04T06:15:23.617Z,2.73
2018-07-04T06:16:08.882Z,2.53
2018-07-04T06:16:54.669Z,2.80
2018-07-04T06:17:39.850Z,2.73
2018-07-04T06:18:25.892Z,2.10
2018-07-04T06:19:11.479Z,3.10
2018-07-04T06:19:56.689Z,2.40
2018-07-04T06:20:42.035Z,2.77
2018-07-04T06:21:27.429Z,2.80
2018-07-04T06:22:12.695Z,2.70
2018-07-04T06:22:57.944Z,3.40
2018-07-04T06:23:43.145Z,3.00
2018-07-04T06:24:28.369Z,2.80
2018-07-04T06:25:13.535Z,3.27
2018-07-04T06:25:58.849Z,2.70
2018-07-04T06:26:44.195Z,2.70
2018-07-04T06:27:29.560Z,2.90
2018-07-04T06:28:14.876Z,2.87
2018-07-04T06:29:00.198Z,2.60
2018-07-04T06:29:45.403Z,2.33
2018-07-04T06:30:30.659Z,3.07
2018-07-04T06:31:16.158Z,2.87
2018-07-04T06:32:01.471Z,3.33
2018-07-04T06:32:46.822Z,2.97
2018-07-04T06:33:32.551Z,2.77
2018-07-04T06:34:17.948Z,3.20
2018-07-04T06:35:03.135Z,2.87
2018-07-04T06:35:48.427Z,2.57
2018-07-04T06:36:33.989Z,2.77
2018-07-04T06:37:19.223Z,2.93
2018-07-04T06:37:52.104Z,3.10
2018-07-04T06:38:24.991Z,3.30
2018-07-04T06:38:57.887Z,2.60
2018-07-04T06:39:30.763Z,2.90
2018-07-04T06:40:03.682Z,3.10
2018-07-04T06:40:36.597Z,3.30
2018-07-04T06:41:09.484Z,2.93
2018-07-04T06:41:42.447Z,2.50
2018-07-04T06:42:15.350Z,3.10
2018-07-04T06:42:48.232Z,3.70
2018-07-04T06:43:21.601Z,3.07
2018-07-04T06:43:54.780Z,2.73
2018-07-04T06:44:27.673Z,3.63
2018-07-04T06:45:00.643Z,3.20
2018-07-04T06:45:33.544Z,3.10
2018-07-04T06:46:06.654Z,3.93
2018-07-04T06:46:39.554Z,3.40
2018-07-04T06:47:12.469Z,2.90
2018-07-04T06:47:45.363Z,3.50
2018-07-04T06:48:18.528Z,3.27
2018-07-04T06:48:51.539Z,3.23
2018-07-04T06:49:24.636Z,3.30
2018-07-04T06:49:57.500Z,3.20
2018-07-04T06:50:30.377Z,3.43
2018-07-04T06:51:03.262Z,2.97
2018-07-04T06:51:36.159Z,3.50
2018-07-04T06:52:09.398Z,3.23
2018-07-04T06:52:42.202Z,3.67
2018-07-04T06:53:15.076Z,3.60
2018-07-04T06:53:47.949Z,3.13
2018-07-04T06:54:20.880Z,3.23
2018-07-04T06:54:53.951Z,3.77
2018-07-04T06:55:26.869Z,3.30
2018-07-04T06:55:59.778Z,3.30
2018-07-04T06:56:32.643Z,3.20
2018-07-04T06:57:05.572Z,3.90
2018-07-04T06:57:38.456Z,2.57
2018-07-04T06:58:11.362Z,3.37
2018-07-04T06:58:44.234Z,2.73
2018-07-04T06:59:17.129Z,3.07
2018-07-04T06:59:49.996Z,3.00
2018-07-04T07:00:22.908Z,3.57
2018-07-04T07:00:55.772Z,3.40
2018-07-04T07:01:28.658Z,2.70
2018-07-04T07:02:12.782Z,3.47
2018-07-04T07:02:45.649Z,3.53
2018-07-04T07:03:31.119Z,3.03
2018-07-04T07:04:16.457Z,2.43
2018-07-04T07:05:02.643Z,2.97
2018-07-04T07:05:47.945Z,3.20
2018-07-04T07:06:33.314Z,3.00
2018-07-04T07:07:18.755Z,3.23
2018-07-04T07:08:04.012Z,2.90
2018-07-04T07:08:49.431Z,3.13
2018-07-04T07:09:34.789Z,2.40
2018-07-04T07:10:20.018Z,3.37
2018-07-04T07:11:05.323Z,3.80
2018-07-04T07:11:50.674Z,3.30
2018-07-04T07:12:36.110Z,2.90
2018-07-04T07:13:21.318Z,3.13
2018-07-04T07:14:06.544Z,3.40
2018-07-04T07:14:51.738Z,3.07
2018-07-04T07:15:37.182Z,3.03
2018-07-04T07:16:22.470Z,3.30
2018-07-04T07:17:07.853Z,3.30
2018-07-04T07:17:53.222Z,2.60
2018-07-04T07:18:38.381Z,3.10
2018-07-04T07:19:23.641Z,3.20
2018-07-04T07:20:08.938Z,3.10
2018-07-04T07:20:54.198Z,2.93
2018-07-04T07:21:39.626Z,2.80
2018-07-04T07:22:25.042Z,2.97
2018-07-04T07:23:10.476Z,3.07
2018-07-04T07:23:55.874Z,3.20
2018-07-04T07:24:41.221Z,2.90
2018-07-04T07:25:26.494Z,2.80
2018-07-04T07:26:11.836Z,3.60
2018-07-04T07:26:57.173Z,3.00
2018-07-04T07:27:42.524Z,2.83
2018-07-04T07:28:27.676Z,3.00
2018-07-04T07:29:12.803Z,2.90
2018-07-04T07:29:58.115Z,3.30
2018-07-04T07:30:43.732Z,2.70
2018-07-04T07:31:28.998Z,3.20
2018-07-04T07:32:14.256Z,2.63
2018-07-04T07:32:59.684Z,3.07
2018-07-04T07:33:45.150Z,2.90
2018-07-04T07:34:30.454Z,3.57
2018-07-04T07:35:15.895Z,2.87
2018-07-04T07:36:01.283Z,3.50
2018-07-04T07:36:47.153Z,2.63
2018-07-04T07:37:32.546Z,3.77
2018-07-04T07:38:17.954Z,2.40
2018-07-04T07:39:03.498Z,2.97
2018-07-04T07:39:48.819Z,2.50
2018-07-04T07:40:34.176Z,2.53
2018-07-04T07:41:19.568Z,3.00
2018-07-04T07:42:05.471Z,2.80
2018-07-04T07:42:50.927Z,2.60
2018-07-04T07:43:36.292Z,3.40
2018-07-04T07:44:21.527Z,2.43
2018-07-04T07:45:06.872Z,2.80
2018-07-04T07:45:52.048Z,3.00
2018-07-04T07:46:37.308Z,2.53
2018-07-04T07:47:22.723Z,2.70
2018-07-04T07:48:08.038Z,2.47
2018-07-04T07:48:53.222Z,2.93
2018-07-04T07:49:38.658Z,2.33
2018-07-04T07:50:24.392Z,2.63
2018-07-04T07:51:03.802Z,2.87
2018-07-04T07:51:49.000Z,2.73
2018-07-04T07:52:34.452Z,2.80
2018-07-04T07:53:19.687Z,2.93
2018-07-04T07:54:05.053Z,2.97
2018-07-04T07:54:50.544Z,2.57
2018-07-04T07:55:29.716Z,2.57
2018-07-04T07:56:15.096Z,2.60
2018-07-04T07:57:00.329Z,2.73
2018-07-04T07:57:45.714Z,2.30
2018-07-04T07:58:30.976Z,2.90
2018-07-04T07:59:16.270Z,3.00
2018-07-04T08:00:01.680Z,2.20
2018-07-04T08:00:46.988Z,3.03
2018-07-04T08:01:32.280Z,2.40
2018-07-04T08:02:17.568Z,2.60
2018-07-04T08:03:03.007Z,2.60
2018-07-04T08:03:48.394Z,2.77
2018-07-04T08:04:33.634Z,2.87
2018-07-04T08:05:18.992Z,2.50
2018-07-04T08:06:04.322Z,2.20
2018-07-04T08:06:49.768Z,2.50
2018-07-04T08:07:35.154Z,2.67
2018-07-04T08:08:20.396Z,2.70
2018-07-04T08:09:05.864Z,2.70
2018-07-04T08:09:51.184Z,2.50
2018-07-04T08:10:36.667Z,2.70
2018-07-04T08:11:22.030Z,2.67
2018-07-04T08:12:07.338Z,3.33
2018-07-04T08:12:52.782Z,2.27
2018-07-04T08:13:38.426Z,2.57
2018-07-04T08:14:23.791Z,2.57
2018-07-04T08:15:09.084Z,2.40
2018-07-04T08:15:54.213Z,2.30
2018-07-04T08:16:39.475Z,2.97
2018-07-04T08:17:24.799Z,2.50
2018-07-04T08:18:09.981Z,2.73
2018-07-04T08:18:55.453Z,2.83
2018-07-04T08:19:40.848Z,2.67
2018-07-04T08:20:26.085Z,2.60
2018-07-04T08:21:11.394Z,2.73
2018-07-04T08:21:57.153Z,2.50
2018-07-04T08:22:42.530Z,2.90
2018-07-04T08:23:27.808Z,2.43
2018-07-04T08:24:13.207Z,3.07
2018-07-04T08:24:58.462Z,2.80
2018-07-04T08:25:43.783Z,2.77
2018-07-04T08:26:28.885Z,2.70
2018-07-04T08:27:14.048Z,2.80
2018-07-04T08:27:59.466Z,3.00
2018-07-04T08:28:44.730Z,2.70
2018-07-04T08:29:30.054Z,2.03
2018-07-04T08:30:15.498Z,2.63
2018-07-04T08:31:01.066Z,2.70
2018-07-04T08:31:46.258Z,3.03
2018-07-04T08:32:31.647Z,3.03
2018-07-04T08:33:17.107Z,2.60
2018-07-04T08:34:02.452Z,2.70
2018-07-04T08:34:48.058Z,2.67
2018-07-04T08:35:33.436Z,2.60
2018-07-04T08:36:18.667Z,2.70
2018-07-04T08:36:58.052Z,2.37
2018-07-04T08:37:43.413Z,2.80
2018-07-04T08:38:28.733Z,3.10
2018-07-04T08:39:14.036Z,3.10
2018-07-04T08:39:59.537Z,2.60
2018-07-04T08:40:44.940Z,2.63
2018-07-04T08:41:30.160Z,2.43
2018-07-04T08:42:15.367Z,3.10
2018-07-04T08:43:00.776Z,2.70
2018-07-04T08:43:46.048Z,3.00
2018-07-04T08:44:31.420Z,3.73
2018-07-04T08:45:16.793Z,3.10
2018-07-04T08:46:02.125Z,2.00
2018-07-04T08:46:47.545Z,2.80
2018-07-04T08:47:32.663Z,2.33
2018-07-04T08:48:18.015Z,2.30
2018-07-04T08:49:03.302Z,2.50
2018-07-04T08:49:42.664Z,2.00
2018-07-04T08:50:27.984Z,2.50
2018-07-04T08:51:13.249Z,2.30
2018-07-04T08:51:58.409Z,2.60
2018-07-04T08:52:43.800Z,2.40
2018-07-04T08:53:29.113Z,2.10
2018-07-04T08:54:14.440Z,2.53
2018-07-04T08:54:59.752Z,2.13
2018-07-04T08:55:44.980Z,2.07
2018-07-04T08:56:30.260Z,2.73
2018-07-04T08:57:15.552Z,2.20
2018-07-04T08:58:01.038Z,2.40
2018-07-04T08:58:46.622Z,2.17
2018-07-04T08:59:32.016Z,2.00
2018-07-04T09:00:17.322Z,1.90
2018-07-04T09:01:02.672Z,2.10
2018-07-04T09:01:47.950Z,2.37
2018-07-04T09:02:33.274Z,2.17
2018-07-04T09:03:12.644Z,2.47
2018-07-04T09:03:57.918Z,2.43
2018-07-04T09:04:43.336Z,2.37
2018-07-04T09:05:28.757Z,2.20
2018-07-04T09:06:14.456Z,2.30
2018-07-04T09:06:59.732Z,2.30
2018-07-04T09:07:45.170Z,2.47
2018-07-04T09:08:30.488Z,2.50
2018-07-04T09:09:16.109Z,2.43
2018-07-04T09:10:01.376Z,2.30
2018-07-04T09:10:46.634Z,2.57
2018-07-04T09:11:25.912Z,2.60
2018-07-04T09:12:11.282Z,2.90
2018-07-04T09:12:56.637Z,2.43
2018-07-04T09:13:42.081Z,2.00
2018-07-04T09:14:27.259Z,1.67
2018-07-04T09:15:12.654Z,2.10
2018-07-04T09:15:58.105Z,2.40
2018-07-04T09:16:43.384Z,2.60
2018-07-04T09:17:28.713Z,2.30
2018-07-04T09:18:14.057Z,2.23
2018-07-04T09:18:59.441Z,2.10
2018-07-04T09:19:44.972Z,1.90
2018-07-04T09:20:30.335Z,2.10
2018-07-04T09:21:15.597Z,2.10
2018-07-04T09:22:00.850Z,1.77
2018-07-04T09:22:46.226Z,2.13
2018-07-04T09:23:31.681Z,2.00
2018-07-04T09:24:16.889Z,1.90
2018-07-04T09:25:02.130Z,2.17
2018-07-04T09:25:47.560Z,2.03
2018-07-04T09:26:26.908Z,2.10
2018-07-04T09:27:12.049Z,2.30
2018-07-04T09:27:57.406Z,1.93
2018-07-04T09:28:42.539Z,2.57
2018-07-04T09:29:27.975Z,2.53
2018-07-04T09:30:13.215Z,2.73
2018-07-04T09:30:58.650Z,1.90
2018-07-04T09:31:43.998Z,2.30
2018-07-04T09:32:29.236Z,2.20
2018-07-04T09:33:14.553Z,2.13
2018-07-04T09:33:59.903Z,2.30
2018-07-04T09:34:39.210Z,2.47
2018-07-04T09:35:24.554Z,3.03
2018-07-04T09:36:09.873Z,2.40
2018-07-04T09:36:55.311Z,2.40
2018-07-04T09:37:34.596Z,2.70
2018-07-04T09:38:19.916Z,2.57
2018-07-04T09:38:59.272Z,2.03
2018-07-04T09:39:44.479Z,1.73
2018-07-04T09:40:24.110Z,2.20
2018-07-04T09:41:09.317Z,1.93
2018-07-04T09:41:54.750Z,2.20
2018-07-04T09:42:40.306Z,1.80
2018-07-04T09:43:25.726Z,1.70
2018-07-04T09:44:11.032Z,1.70
2018-07-04T09:44:56.357Z,1.80
2018-07-04T09:45:41.667Z,1.77
2018-07-04T09:46:26.989Z,2.20
2018-07-04T09:47:12.462Z,2.70
2018-07-04T09:47:57.625Z,2.00
2018-07-04T09:48:43.039Z,1.57
2018-07-04T09:49:28.427Z,1.77
2018-07-04T09:50:13.720Z,1.57
2018-07-04T09:50:58.897Z,1.60
2018-07-04T09:51:38.279Z,1.63
2018-07-04T09:52:23.442Z,1.57
2018-07-04T09:53:09.316Z,1.60
2018-07-04T09:53:54.763Z,1.70
2018-07-04T09:54:39.991Z,1.60
2018-07-04T09:55:25.392Z,1.60
2018-07-04T09:56:10.731Z,2.20
2018-07-04T09:56:56.281Z,1.93
2018-07-04T09:57:41.589Z,2.10
2018-07-04T09:58:26.806Z,2.37
2018-07-04T09:59:12.235Z,1.77
2018-07-04T09:59:57.569Z,2.03
2018-07-04T10:00:48.289Z,1.90
2018-07-04T10:01:33.572Z,2.23
2018-07-04T10:02:12.883Z,2.40
2018-07-04T10:02:58.107Z,2.93
2018-07-04T10:03:43.410Z,1.90
2018-07-04T10:04:28.880Z,1.90
2018-07-04T10:05:14.307Z,2.00
2018-07-04T10:05:59.607Z,2.13
2018-07-04T10:06:45.558Z,2.20
2018-07-04T10:07:30.884Z,2.23
2018-07-04T10:08:16.346Z,1.73
2018-07-04T10:09:01.631Z,1.90
2018-07-04T10:09:46.909Z,2.33
2018-07-04T10:10:32.256Z,2.10
2018-07-04T10:11:17.728Z,2.00
2018-07-04T10:12:03.069Z,2.23
2018-07-04T10:12:48.347Z,1.97
2018-07-04T10:13:33.627Z,1.63
2018-07-04T10:14:18.934Z,2.17
2018-07-04T10:14:58.306Z,2.00
2018-07-04T10:15:43.495Z,2.13
2018-07-04T10:16:28.876Z,2.00
2018-07-04T10:17:14.130Z,2.20
2018-07-04T10:17:59.762Z,1.50
2018-07-04T10:18:45.198Z,1.53
2018-07-04T10:19:30.523Z,2.13
2018-07-04T10:20:16.071Z,2.57
2018-07-04T10:21:01.535Z,2.00
2018-07-04T10:21:46.886Z,2.13
2018-07-04T10:22:32.302Z,2.10
2018-07-04T10:23:17.754Z,2.30
2018-07-04T10:24:03.262Z,1.73
2018-07-04T10:24:48.590Z,2.27
2018-07-04T10:25:34.007Z,1.80
2018-07-04T10:26:19.304Z,1.73
2018-07-04T10:26:58.516Z,2.00